METAR stanice u blizini

 

LYNI - Nis, Yugoslavia
Distance from station: JZ 40km
Ažurirano: 23/06/2021 19:00
Vedro
Vedro
 Pravac vetra varies
Vetar: varies 2 km/h
Temperatura: 34°C
Heat Index: 36°C
Tačka rose: 19°C
Vlažnost: 41%
Pritisak: 1015 hPa
Pregled: Vedro
Vidljivost: greater than 10 km
2021/06/23 17:00 LYNI 231700Z VRB01KT CAVOK 34/19 Q1015 NOSIG
LYKV - Kraljevo, Yugoslavia
Distance from station: ZSZ 136km
Ažurirano: 23/06/2021 19:00
Vedro
Vedro
 Pravac vetra varies
Vetar: varies 6 km/h
Temperatura: 35°C
Tačka rose: 19°C
Vlažnost: 39%
Pritisak: 1015 hPa
Pregled: Vedro
Vidljivost: greater than 10 km
2021/06/23 17:00 LYKV 231700Z VRB03KT CAVOK 35/19 Q1015 NOSIG
LBSF - Sofia (observato, Bulgaria
Distance from station: JI 138km
Ažurirano: 23/06/2021 19:00
Vedro
Vedro
 Pravac vetra SSZ
Vetar: SSZ 7 km/h
Temperatura: 31°C
Heat Index: 31°C
Tačka rose: 16°C
Vlažnost: 40%
Pritisak: 1018 hPa
Pregled: Vedro
Vidljivost: greater than 10 km
2021/06/23 17:00 LBSF 231700Z 34004KT 290V020 CAVOK 31/16 Q1018 NOSIG
 
BKPR - Prishtina, Yugoslavia
Distance from station: JZ 147km
Ažurirano: 23/06/2021 19:00
Vedro
Vedro
 Pravac vetra SZ
Vetar: SZ 7 km/h
Temperatura: 32°C
Heat Index: 34°C
Tačka rose: 19°C
Vlažnost: 46%
Pritisak: 1018 hPa
Pregled: Vedro
Vidljivost: greater than 10 km
2021/06/23 17:00 BKPR 231700Z 31004KT CAVOK 32/19 Q1018 NOSIG
LRCV - Craiova, Romania
Distance from station: SI 154km
Ažurirano: 23/06/2021 19:00
Delimično oblačno
Delimično oblačno
 Pravac vetra ZSZ
Vetar: ZSZ 7 km/h
Temperatura: 32°C
Heat Index: 33°C
Tačka rose: 18°C
Vlažnost: 43%
Pritisak: 1014 hPa
Oblaci: Delimično oblačno
Vidljivost: 10 km
Cloud details: Delimično oblačno 1524 m
2021/06/23 17:00 LRCV 231700Z 29004KT 9999 SCT050CB 32/18 Q1014
LWSK - Skopje/Petrovac, Macedonia
Distance from station: JJZ 185km
Ažurirano: 23/06/2021 19:00
Vedro
Vedro
 Pravac vetra S
Vetar: S 15 km/h
Temperatura: 36°C
Tačka rose: 16°C
Vlažnost: 30%
Pritisak: 1015 hPa
Pregled: Vedro
Vidljivost: greater than 10 km
2021/06/23 17:00 LWSK 231700Z 01008KT CAVOK 36/16 Q1015 NOSIG
 
LYVR - Vrsac, Yugoslavia
Distance from station: SSZ 189km
Ažurirano: 23/06/2021 19:00
Vedro
Vedro
 Pravac vetra SSZ
Vetar: SSZ 6 km/h
Temperatura: 35°C
Tačka rose: 17°C
Vlažnost: 34%
Pritisak: 1014 hPa
Pregled: Vedro
Vidljivost: greater than 10 km
2021/06/23 17:00 LYVR 231700Z AUTO 33003KT CAVOK 35/17 Q1014
LYUZ - Uzice-Ponikve, Yugoslavia
Distance from station: Z 207km
Ažurirano: 23/06/2021 19:00
Vedro
Vedro
 Pravac vetra I
Vetar: I 7 km/h
Temperatura: 29°C
Heat Index: 29°C
Tačka rose: 17°C
Vlažnost: 48%
Pritisak: 1022 hPa
Pregled: Vedro
Vidljivost: greater than 10 km
2021/06/23 17:00 LYUZ 231700Z AUTO 08004KT 040V120 CAVOK 29/17 Q1022
LYBE - Belgrade/Surcin, Yugoslavia
Distance from station: SZ 209km
Ažurirano: 23/06/2021 19:00
Vedro
Vedro
 Pravac vetra SSI
Vetar: SSI 6 km/h
Temperatura: 35°C
Tačka rose: 19°C
Vlažnost: 39%
Pritisak: 1015 hPa
Pregled: Vedro
Vidljivost: greater than 10 km
2021/06/23 17:00 LYBE 231700Z 02003KT CAVOK 35/19 Q1015 NOSIG
 
LYBT - Batajnica, Yugoslavia
Distance from station: SZ 219km
Ažurirano: 23/06/2021 19:00
Vedro
Vedro
 Pravac vetra SI
Vetar: SI 6 km/h
Temperatura: 34°C
Tačka rose: 17°C
Vlažnost: 36%
Pritisak: 1015 hPa
Pregled: Vedro
Vidljivost: greater than 10 km
2021/06/23 17:00 LYBT 231700Z 04003KT CAVOK 34/17 Q1015 NOSIG
LRTR - Timisoara/Giarma, Romania
Distance from station: SSZ 260km
Ažurirano: 23/06/2021 19:00
Vedro
Vedro
 Pravac vetra S
Vetar: S 9 km/h
Temperatura: 33°C
Tačka rose: 13°C
Vlažnost: 30%
Pritisak: 1015 hPa
Pregled: Vedro
Vidljivost: greater than 10 km
2021/06/23 17:00 LRTR 231700Z 35005KT CAVOK 33/13 Q1015
LBPD - Plovdiv, Bulgaria
Distance from station: JI 263km
Ažurirano: 23/06/2021 19:00
Vedro
Vedro
 Pravac vetra S
Vetar: S 15 km/h
Temperatura: 32°C
Heat Index: 33°C
Tačka rose: 17°C
Vlažnost: 41%
Pritisak: 1015 hPa
Oblaci: Vedro
Vidljivost: 10 km
2021/06/23 17:00 LBPD 231700Z AUTO 36008KT 9999 NCD 32/17 Q1015 NOSIG
 
LYPG - Podgorica(Titogr, Yugoslavia
Distance from station: ZJZ 278km
Ažurirano: 23/06/2021 19:00
Vedro
Vedro
 Pravac vetra JJZ
Vetar: JJZ 7 km/h
Temperatura: 35°C
Tačka rose: 17°C
Vlažnost: 34%
Pritisak: 1014 hPa
Pregled: Vedro
Vidljivost: greater than 10 km
2021/06/23 17:00 LYPG 231700Z 20004KT 170V230 CAVOK 35/17 Q1014 NOSIG
LBGO - Gorna Orechovist, Bulgaria
Distance from station: I 285km
Ažurirano: 23/06/2021 19:00
Vedro
Vedro
 Pravac vetra varies
Vetar: varies 4 km/h
Temperatura: 28°C
Heat Index: 31°C
Tačka rose: 23°C
Vlažnost: 74%
Pritisak: 1015 hPa
Oblaci: Vedro
Vidljivost: 10 km
2021/06/23 17:00 LBGO 231700Z AUTO VRB02KT 9999 NCD 28/23 Q1015 NOSIG
LRSB - Sibiu/Turnisor, Romania
Distance from station: SSI 286km
Ažurirano: 23/06/2021 19:00
Vedro
Vedro
 Pravac vetra calm
Vetar: Tišina
Temperatura: 25°C
Tačka rose: 20°C
Vlažnost: 74%
Pritisak: 1017 hPa
Pregled: Vedro
Vidljivost: greater than 10 km
2021/06/23 17:00 LRSB 231700Z 00000KT CAVOK 25/20 Q1017
 
LWOH - Ohrid, Macedonia
Distance from station: JJZ 292km
Ažurirano: 23/06/2021 19:00
Vedro
Vedro
 Pravac vetra JI
Vetar: JI 2 km/h
Temperatura: 29°C
Heat Index: 28°C
Tačka rose: 14°C
Vlažnost: 40%
Pritisak: 1019 hPa
Pregled: Vedro
Vidljivost: greater than 10 km
2021/06/23 17:00 LWOH 231700Z 14001KT CAVOK 29/14 Q1019
LQTZ - Tuzla, Yugoslavia
Distance from station: ZSZ 298km
Ažurirano: 23/06/2021 19:00
Vedro
Vedro
 Pravac vetra I
Vetar: I 11 km/h
Temperatura: 32°C
Heat Index: 36°C
Tačka rose: 21°C
Vlažnost: 52%
Pritisak: 1015 hPa
Pregled: Vedro
Vidljivost: greater than 10 km
2021/06/23 17:00 LQTZ 231700Z 08006KT CAVOK 32/21 Q1015
LRAR - Arad, Romania
Distance from station: SSZ 301km
Ažurirano: 23/06/2021 19:00
Vedro
Vedro
 Pravac vetra ZSZ
Vetar: ZSZ 9 km/h
Temperatura: 34°C
Tačka rose: 13°C
Vlažnost: 28%
Pritisak: 1015 hPa
Pregled: Vedro
Vidljivost: greater than 10 km
2021/06/23 17:00 LRAR 231700Z 30005KT CAVOK 34/13 Q1015
 
LYTV - Tivat, Yugoslavia
Distance from station: ZJZ 315km
Ažurirano: 23/06/2021 19:00
Vedro
Vedro
 Pravac vetra varies
Vetar: varies 4 km/h
Temperatura: 31°C
Heat Index: 32°C
Tačka rose: 18°C
Vlažnost: 46%
Pritisak: 1014 hPa
Pregled: Vedro
Vidljivost: greater than 10 km
2021/06/23 17:00 LYTV 231700Z VRB02KT CAVOK 31/18 Q1014 NOSIG
LATI - Tirana, Albania
Distance from station: JZ 316km
Ažurirano: 23/06/2021 18:50
Vedro
Vedro
 Pravac vetra SSZ
Vetar: SSZ 7 km/h
Temperatura: 31°C
Heat Index: 32°C
Tačka rose: 18°C
Vlažnost: 46%
Pritisak: 1015 hPa
Pregled: Vedro
Vidljivost: greater than 10 km
2021/06/23 16:50 LATI 231650Z 34004KT CAVOK 31/18 Q1015 NOSIG
LQBK - Banja Luka, Yugoslavia
Distance from station: SZ 426km
Ažurirano: 23/06/2021 19:00
Vedro
Vedro
 Pravac vetra ISI
Vetar: ISI 7 km/h
Temperatura: 34°C
Heat Index: 36°C
Tačka rose: 19°C
Vlažnost: 41%
Pritisak: 1014 hPa
Pregled: Vedro
Vidljivost: greater than 10 km
2021/06/23 17:00 LQBK 231700Z 07004KT 050V140 CAVOK 34/19 Q1014 NOSIG
 
LDOS - Osijek, Croatia
Distance from station: SSZ 360km
Ažurirano: 23/06/2021 19:00
Vedro
Vedro
 Pravac vetra ISI
Vetar: ISI 7 km/h
Temperatura: 32°C
Heat Index: 34°C
Tačka rose: 20°C
Vlažnost: 49%
Pritisak: 1014 hPa
Pregled: Vedro
Vidljivost: greater than 10 km
2021/06/23 17:00 LDOS 231700Z 06004KT CAVOK 32/20 Q1014
LDDU - Dubrovnik-Cilipi, Croatia
Distance from station: JZ 352km
Ažurirano: 23/06/2021 19:00
Vedro
Vedro
 Pravac vetra ZSZ
Vetar: ZSZ 6 km/h
Temperatura: 31°C
Tačka rose: 15°C
Vlažnost: 38%
Pritisak: 1015 hPa
Pregled: Vedro
Vidljivost: greater than 10 km
2021/06/23 17:00 LDDU 231700Z 30003KT 260V330 CAVOK 31/15 Q1015 NOSIG
LQMO - Mostar Airport, Bosnia-Herzegovina
Distance from station: Z 359km
Ažurirano: 23/06/2021 19:00
Vedro
Vedro
 Pravac vetra JJI
Vetar: JJI 13 km/h
Temperatura: 37°C
Tačka rose: 13°C
Vlažnost: 24%
Pritisak: 1012 hPa
Pregled: Vedro
Vidljivost: greater than 10 km
2021/06/23 17:00 LQMO 231700Z 15007KT CAVOK 37/13 Q1012
 
LQSA - Sarajevo/Butmir, Yugoslavia
Distance from station: Z 311km
Ažurirano: 23/06/2021 19:00
Vedro
Vedro
 Pravac vetra SZ
Vetar: SZ 7 km/h
Temperatura: 34°C
Tačka rose: 15°C
Vlažnost: 32%
Pritisak: 1017 hPa
Pregled: Vedro
Vidljivost: greater than 10 km
2021/06/23 17:00 LQSA 231700Z 32004KT CAVOK 34/15 Q1017 NOSIG
LDSP - Split/Kastel Sta, Croatia
Distance from station: Z 468km
Ažurirano: 23/06/2021 19:00
Vedro
Vedro
 Pravac vetra JZ
Vetar: JZ 15 km/h
Temperatura: 30°C
Heat Index: 31°C
Tačka rose: 18°C
Vlažnost: 49%
Pritisak: 1014 hPa
Pregled: Vedro
Vidljivost: greater than 10 km
2021/06/23 17:00 LDSP 231700Z 23008KT CAVOK 30/18 Q1014 BECMG 10005KT
LDZD - Zadar/Zemunik, Croatia
Distance from station: ZSZ 567km
Ažurirano: 23/06/2021 19:00
Vedro
Vedro
 Pravac vetra JJI
Vetar: JJI 13 km/h
Temperatura: 32°C
Tačka rose: 15°C
Vlažnost: 36%
Pritisak: 1015 hPa
Pregled: Vedro
Vidljivost: greater than 10 km
2021/06/23 17:00 LDZD 231700Z 15007KT CAVOK 32/15 Q1015 NOSIG
 
LDZA - Zagreb/Pleso, Croatia
Distance from station: SZ 555km
Ažurirano: 23/06/2021 19:00
Vedro
Vedro
 Pravac vetra IJI
Vetar: IJI 6 km/h
Temperatura: 33°C
Heat Index: 34°C
Tačka rose: 18°C
Vlažnost: 41%
Pritisak: 1014 hPa
Pregled: Vedro
Vidljivost: greater than 10 km
2021/06/23 17:00 LDZA 231700Z 12003KT 090V150 CAVOK 33/18 Q1014 NOSIG
LJCE - Cerklje, Slovenia
Distance from station: SZ 680km
Ažurirano: 23/06/2021 18:30
Vedro
Vedro
 Pravac vetra I
Vetar: I 13 km/h
Temperatura: 33°C
Heat Index: 34°C
Tačka rose: 19°C
Vlažnost: 44%
Pritisak: 1014 hPa
Pregled: Vedro
Vidljivost: greater than 10 km
2021/06/23 16:30 LJCE 231630Z 10007KT 070V130 CAVOK 33/19 Q1014 RMK BLU
LJMB - Maribor, Slovenia
Distance from station: SZ 616km
Ažurirano: 23/06/2021 19:00
Vedro
Vedro
 Pravac vetra JJI
Vetar: JJI 13 km/h
Temperatura: 32°C
Tačka rose: 16°C
Vlažnost: 38%
Pritisak: 1015 hPa
Pregled: Vedro
Vidljivost: greater than 10 km
2021/06/23 17:00 LJMB 231700Z 16007KT CAVOK 32/16 Q1015
 
LJLJ - Ljubljana/Brnik, Slovenia
Distance from station: SZ 671km
Ažurirano: 23/06/2021 19:00
Few Clouds
Few Clouds
 Pravac vetra JI
Vetar: JI 13 km/h
Temperatura: 30°C
Heat Index: 31°C
Tačka rose: 18°C
Vlažnost: 49%
Pritisak: 1015 hPa
Oblaci: Few Clouds
Vidljivost: 10 km
Cloud details: Few Clouds 2134 m
2021/06/23 17:00 LJLJ 231700Z 13007KT 9999 FEW070 30/18 Q1015 NOSIG
LDRI - Rijeka, Croatia
Distance from station: SZ 650km
Ažurirano: 23/06/2021 19:00
Vedro
Vedro
 Pravac vetra JZ
Vetar: JZ 9 km/h
Temperatura: 30°C
Heat Index: 31°C
Tačka rose: 19°C
Vlažnost: 52%
Pritisak: 1015 hPa
Pregled: Vedro
Vidljivost: greater than 10 km
2021/06/23 17:00 LDRI 231700Z 23005KT 200V300 CAVOK 30/19 Q1015
LDPL - Pula, Croatia
Distance from station: ZSZ 686km
Ažurirano: 23/06/2021 19:00
Vedro
Vedro
 Pravac vetra JI
Vetar: JI 7 km/h
Temperatura: 28°C
Heat Index: 28°C
Tačka rose: 17°C
Vlažnost: 51%
Pritisak: 1015 hPa
Pregled: Vedro
Vidljivost: greater than 10 km
2021/06/23 17:00 LDPL 231700Z 13004KT 090V160 CAVOK 28/17 Q1015 NOSIG
 
LJPZ - Portorož, Slovenia
Distance from station: ZSZ 720km
Ažurirano: 23/06/2021 19:00
Vedro
Vedro
 Pravac vetra JZ
Vetar: JZ 11 km/h
Temperatura: 30°C
Heat Index: 33°C
Tačka rose: 21°C
Vlažnost: 59%
Pritisak: 1014 hPa
Pregled: Vedro
Vidljivost: greater than 10 km
2021/06/23 17:00 LJPZ 231700Z 22006KT CAVOK 30/21 Q1014